sensor_id;sensor_type;location;lat;lon;timestamp;pressure;altitude;pressure_sealevel;temperature;humidity
10079;BME280;5078;42.544;22.966;2023-09-18T00:02:15;94361.16;;;15.61;100.00
10079;BME280;5078;42.544;22.966;2023-09-18T00:04:43;94361.38;;;15.66;100.00
10079;BME280;5078;42.544;22.966;2023-09-18T00:07:10;94361.84;;;15.70;100.00
10079;BME280;5078;42.544;22.966;2023-09-18T00:09:37;94358.81;;;15.73;100.00
10079;BME280;5078;42.544;22.966;2023-09-18T00:12:05;94350.56;;;15.74;100.00
10079;BME280;5078;42.544;22.966;2023-09-18T00:14:32;94354.34;;;15.87;100.00
10079;BME280;5078;42.544;22.966;2023-09-18T00:16:58;94347.13;;;15.81;100.00
10079;BME280;5078;42.544;22.966;2023-09-18T00:19:25;94345.84;;;15.77;100.00
10079;BME280;5078;42.544;22.966;2023-09-18T00:21:53;94343.97;;;15.70;100.00
10079;BME280;5078;42.544;22.966;2023-09-18T00:24:21;94346.16;;;15.60;100.00
10079;BME280;5078;42.544;22.966;2023-09-18T00:26:48;94347.84;;;15.68;100.00
10079;BME280;5078;42.544;22.966;2023-09-18T00:29:14;94346.25;;;15.73;100.00
10079;BME280;5078;42.544;22.966;2023-09-18T00:31:41;94345.75;;;15.63;100.00
10079;BME280;5078;42.544;22.966;2023-09-18T00:34:08;94346.91;;;15.54;100.00
10079;BME280;5078;42.544;22.966;2023-09-18T00:36:34;94353.94;;;15.62;100.00
10079;BME280;5078;42.544;22.966;2023-09-18T00:39:03;94346.16;;;15.67;100.00
10079;BME280;5078;42.544;22.966;2023-09-18T00:41:30;94356.19;;;15.58;100.00
10079;BME280;5078;42.544;22.966;2023-09-18T00:43:56;94353.84;;;15.48;100.00
10079;BME280;5078;42.544;22.966;2023-09-18T00:46:23;94350.72;;;15.45;100.00
10079;BME280;5078;42.544;22.966;2023-09-18T00:48:50;94355.13;;;15.52;100.00
10079;BME280;5078;42.544;22.966;2023-09-18T00:51:17;94343.75;;;15.44;100.00
10079;BME280;5078;42.544;22.966;2023-09-18T00:53:45;94351.63;;;15.52;100.00
10079;BME280;5078;42.544;22.966;2023-09-18T00:56:15;94341.56;;;15.54;100.00
10079;BME280;5078;42.544;22.966;2023-09-18T00:58:42;94342.59;;;15.53;100.00
10079;BME280;5078;42.544;22.966;2023-09-18T01:01:11;94366.72;;;15.38;100.00
10079;BME280;5078;42.544;22.966;2023-09-18T01:03:41;94365.28;;;14.93;100.00
10079;BME280;5078;42.544;22.966;2023-09-18T01:06:08;94363.66;;;15.20;100.00
10079;BME280;5078;42.544;22.966;2023-09-18T01:08:35;94367.50;;;15.10;100.00
10079;BME280;5078;42.544;22.966;2023-09-18T01:11:06;94370.47;;;15.22;100.00
10079;BME280;5078;42.544;22.966;2023-09-18T01:13:43;94372.38;;;15.07;100.00
10079;BME280;5078;42.544;22.966;2023-09-18T01:16:16;94370.13;;;14.67;100.00
10079;BME280;5078;42.544;22.966;2023-09-18T01:18:48;94373.09;;;14.94;100.00
10079;BME280;5078;42.544;22.966;2023-09-18T01:21:15;94372.47;;;15.14;100.00
10079;BME280;5078;42.544;22.966;2023-09-18T01:23:43;94361.34;;;14.88;100.00
10079;BME280;5078;42.544;22.966;2023-09-18T01:26:10;94367.56;;;14.96;100.00
10079;BME280;5078;42.544;22.966;2023-09-18T01:28:37;94373.09;;;15.16;100.00
10079;BME280;5078;42.544;22.966;2023-09-18T01:31:03;94367.13;;;15.14;100.00
10079;BME280;5078;42.544;22.966;2023-09-18T01:33:31;94370.63;;;15.36;100.00
10079;BME280;5078;42.544;22.966;2023-09-18T01:35:59;94370.09;;;15.04;100.00
10079;BME280;5078;42.544;22.966;2023-09-18T01:38:27;94376.22;;;14.46;100.00
10079;BME280;5078;42.544;22.966;2023-09-18T01:40:57;94385.66;;;14.13;100.00
10079;BME280;5078;42.544;22.966;2023-09-18T01:43:23;94378.47;;;14.43;100.00
10079;BME280;5078;42.544;22.966;2023-09-18T01:45:50;94376.66;;;14.65;100.00
10079;BME280;5078;42.544;22.966;2023-09-18T01:48:17;94380.75;;;14.61;100.00
10079;BME280;5078;42.544;22.966;2023-09-18T01:50:44;94378.50;;;14.50;100.00
10079;BME280;5078;42.544;22.966;2023-09-18T01:53:10;94385.44;;;14.29;100.00
10079;BME280;5078;42.544;22.966;2023-09-18T01:55:37;94380.75;;;14.61;100.00
10079;BME280;5078;42.544;22.966;2023-09-18T01:58:05;94379.13;;;14.81;100.00
10079;BME280;5078;42.544;22.966;2023-09-18T02:00:32;94380.31;;;14.13;100.00
10079;BME280;5078;42.544;22.966;2023-09-18T02:02:59;94388.41;;;14.05;100.00
10079;BME280;5078;42.544;22.966;2023-09-18T02:05:25;94385.81;;;14.26;100.00
10079;BME280;5078;42.544;22.966;2023-09-18T02:07:52;94382.22;;;13.74;100.00
10079;BME280;5078;42.544;22.966;2023-09-18T02:10:19;94386.19;;;14.23;100.00
10079;BME280;5078;42.544;22.966;2023-09-18T02:12:46;94388.28;;;14.42;100.00
10079;BME280;5078;42.544;22.966;2023-09-18T02:15:14;94398.28;;;14.70;100.00
10079;BME280;5078;42.544;22.966;2023-09-18T02:17:42;94396.84;;;14.53;100.00
10079;BME280;5078;42.544;22.966;2023-09-18T02:20:09;94394.72;;;14.48;100.00
10079;BME280;5078;42.544;22.966;2023-09-18T02:22:37;94392.63;;;14.58;100.00
10079;BME280;5078;42.544;22.966;2023-09-18T02:25:05;94385.16;;;14.69;100.00
10079;BME280;5078;42.544;22.966;2023-09-18T02:27:33;94384.66;;;14.50;100.00
10079;BME280;5078;42.544;22.966;2023-09-18T02:30:00;94385.16;;;14.54;100.00
10079;BME280;5078;42.544;22.966;2023-09-18T02:32:28;94386.53;;;14.50;100.00
10079;BME280;5078;42.544;22.966;2023-09-18T02:34:55;94381.94;;;14.43;100.00
10079;BME280;5078;42.544;22.966;2023-09-18T02:37:21;94384.41;;;14.60;100.00
10079;BME280;5078;42.544;22.966;2023-09-18T02:39:49;94382.78;;;14.59;100.00
10079;BME280;5078;42.544;22.966;2023-09-18T02:42:16;94383.22;;;14.62;100.00
10079;BME280;5078;42.544;22.966;2023-09-18T02:44:44;94383.69;;;14.36;100.00
10079;BME280;5078;42.544;22.966;2023-09-18T02:47:11;94383.22;;;14.62;100.00
10079;BME280;5078;42.544;22.966;2023-09-18T02:49:39;94379.25;;;14.95;100.00
10079;BME280;5078;42.544;22.966;2023-09-18T02:52:05;94379.69;;;15.20;100.00
10079;BME280;5078;42.544;22.966;2023-09-18T02:54:32;94358.28;;;14.92;100.00
10079;BME280;5078;42.544;22.966;2023-09-18T02:56:59;94377.09;;;15.05;100.00
10079;BME280;5078;42.544;22.966;2023-09-18T02:59:25;94380.16;;;15.02;100.00
10079;BME280;5078;42.544;22.966;2023-09-18T03:01:52;94377.00;;;15.13;100.00
10079;BME280;5078;42.544;22.966;2023-09-18T03:04:19;94380.09;;;14.95;100.00
10079;BME280;5078;42.544;22.966;2023-09-18T03:06:47;94381.31;;;14.93;100.00
10079;BME280;5078;42.544;22.966;2023-09-18T03:09:14;94392.59;;;14.73;100.00
10079;BME280;5078;42.544;22.966;2023-09-18T03:11:42;94392.41;;;14.60;100.00
10079;BME280;5078;42.544;22.966;2023-09-18T03:14:09;94381.66;;;14.89;100.00
10079;BME280;5078;42.544;22.966;2023-09-18T03:16:36;94385.50;;;15.02;100.00
10079;BME280;5078;42.544;22.966;2023-09-18T03:19:03;94382.75;;;15.17;100.00
10079;BME280;5078;42.544;22.966;2023-09-18T03:21:29;94374.66;;;15.10;100.00
10079;BME280;5078;42.544;22.966;2023-09-18T03:24:00;94381.22;;;15.07;100.00
10079;BME280;5078;42.544;22.966;2023-09-18T03:26:26;94386.00;;;15.12;100.00
10079;BME280;5078;42.544;22.966;2023-09-18T03:28:53;94386.63;;;15.14;100.00
10079;BME280;5078;42.544;22.966;2023-09-18T03:31:20;94380.88;;;15.10;100.00
10079;BME280;5078;42.544;22.966;2023-09-18T03:33:46;94378.19;;;15.10;100.00
10079;BME280;5078;42.544;22.966;2023-09-18T03:36:13;94382.25;;;15.06;100.00
10079;BME280;5078;42.544;22.966;2023-09-18T03:38:40;94382.94;;;14.94;100.00
10079;BME280;5078;42.544;22.966;2023-09-18T03:41:08;94383.03;;;14.64;100.00
10079;BME280;5078;42.544;22.966;2023-09-18T03:43:34;94376.34;;;14.53;100.00
10079;BME280;5078;42.544;22.966;2023-09-18T03:46:05;94376.66;;;14.50;100.00
10079;BME280;5078;42.544;22.966;2023-09-18T03:48:32;94377.88;;;14.48;100.00
10079;BME280;5078;42.544;22.966;2023-09-18T03:51:03;94379.38;;;14.35;100.00
10079;BME280;5078;42.544;22.966;2023-09-18T03:53:29;94385.38;;;13.93;100.00
10079;BME280;5078;42.544;22.966;2023-09-18T03:55:56;94381.16;;;14.13;100.00
10079;BME280;5078;42.544;22.966;2023-09-18T03:58:24;94378.00;;;14.10;100.00
10079;BME280;5078;42.544;22.966;2023-09-18T04:00:52;94379.47;;;14.27;100.00
10079;BME280;5078;42.544;22.966;2023-09-18T04:03:18;94384.63;;;14.43;100.00
10079;BME280;5078;42.544;22.966;2023-09-18T04:05:45;94373.19;;;14.50;100.00
10079;BME280;5078;42.544;22.966;2023-09-18T04:08:12;94378.81;;;14.55;100.00
10079;BME280;5078;42.544;22.966;2023-09-18T04:10:38;94379.72;;;14.62;100.00
10079;BME280;5078;42.544;22.966;2023-09-18T04:13:05;94382.94;;;14.57;100.00
10079;BME280;5078;42.544;22.966;2023-09-18T04:15:33;94391.69;;;14.36;100.00
10079;BME280;5078;42.544;22.966;2023-09-18T04:18:03;94389.03;;;14.36;100.00
10079;BME280;5078;42.544;22.966;2023-09-18T04:20:30;94391.59;;;14.30;100.00
10079;BME280;5078;42.544;22.966;2023-09-18T04:23:22;94391.88;;;14.20;100.00
10079;BME280;5078;42.544;22.966;2023-09-18T04:25:50;94397.19;;;14.50;100.00
10079;BME280;5078;42.544;22.966;2023-09-18T04:28:18;94395.47;;;14.27;100.00
10079;BME280;5078;42.544;22.966;2023-09-18T04:30:47;94409.09;;;14.17;100.00
10079;BME280;5078;42.544;22.966;2023-09-18T04:33:14;94407.22;;;14.48;100.00
10079;BME280;5078;42.544;22.966;2023-09-18T04:35:41;94405.84;;;14.52;100.00
10079;BME280;5078;42.544;22.966;2023-09-18T04:38:08;94408.09;;;14.33;100.00
10079;BME280;5078;42.544;22.966;2023-09-18T04:40:35;94412.78;;;14.31;100.00
10079;BME280;5078;42.544;22.966;2023-09-18T04:43:02;94409.28;;;14.31;100.00
10079;BME280;5078;42.544;22.966;2023-09-18T04:45:30;94412.28;;;14.42;100.00
10079;BME280;5078;42.544;22.966;2023-09-18T04:47:58;94412.75;;;14.76;100.00
10079;BME280;5078;42.544;22.966;2023-09-18T04:50:25;94405.03;;;14.66;100.00
10079;BME280;5078;42.544;22.966;2023-09-18T04:52:52;94414.13;;;14.72;100.00
10079;BME280;5078;42.544;22.966;2023-09-18T04:55:19;94388.50;;;14.77;100.00
10079;BME280;5078;42.544;22.966;2023-09-18T04:57:46;94409.84;;;14.56;100.00
10079;BME280;5078;42.544;22.966;2023-09-18T05:00:14;94402.56;;;14.20;100.00
10079;BME280;5078;42.544;22.966;2023-09-18T05:02:41;94406.78;;;14.29;100.00
10079;BME280;5078;42.544;22.966;2023-09-18T05:05:10;94412.38;;;14.49;100.00
10079;BME280;5078;42.544;22.966;2023-09-18T05:07:36;94414.28;;;14.70;100.00
10079;BME280;5078;42.544;22.966;2023-09-18T05:10:04;94412.19;;;14.80;100.00
10079;BME280;5078;42.544;22.966;2023-09-18T05:12:31;94412.53;;;14.77;100.00
10079;BME280;5078;42.544;22.966;2023-09-18T05:14:57;94415.88;;;14.64;100.00
10079;BME280;5078;42.544;22.966;2023-09-18T05:17:40;94413.75;;;14.30;100.00
10079;BME280;5078;42.544;22.966;2023-09-18T05:20:10;94407.56;;;14.74;100.00
10079;BME280;5078;42.544;22.966;2023-09-18T05:22:39;94421.03;;;14.66;100.00
10079;BME280;5078;42.544;22.966;2023-09-18T05:25:06;94414.59;;;14.75;100.00
10079;BME280;5078;42.544;22.966;2023-09-18T05:27:32;94415.59;;;15.10;100.00
10079;BME280;5078;42.544;22.966;2023-09-18T05:29:59;94411.56;;;15.21;100.00
10079;BME280;5078;42.544;22.966;2023-09-18T05:32:26;94410.13;;;15.40;100.00
10079;BME280;5078;42.544;22.966;2023-09-18T05:34:53;94406.97;;;15.58;100.00
10079;BME280;5078;42.544;22.966;2023-09-18T05:37:21;94415.50;;;15.68;100.00
10079;BME280;5078;42.544;22.966;2023-09-18T05:39:47;94407.22;;;15.63;100.00
10079;BME280;5078;42.544;22.966;2023-09-18T05:42:14;94404.69;;;15.77;100.00
10079;BME280;5078;42.544;22.966;2023-09-18T05:44:41;94404.81;;;15.96;100.00
10079;BME280;5078;42.544;22.966;2023-09-18T05:47:08;94401.63;;;15.58;100.00
10079;BME280;5078;42.544;22.966;2023-09-18T05:49:35;94400.19;;;15.56;100.00
10079;BME280;5078;42.544;22.966;2023-09-18T05:52:01;94407.16;;;15.78;100.00
10079;BME280;5078;42.544;22.966;2023-09-18T05:54:29;94401.59;;;15.80;100.00
10079;BME280;5078;42.544;22.966;2023-09-18T05:56:56;94404.09;;;15.81;100.00
10079;BME280;5078;42.544;22.966;2023-09-18T05:59:23;94405.81;;;15.89;100.00
10079;BME280;5078;42.544;22.966;2023-09-18T06:01:49;94409.34;;;15.96;100.00
10079;BME280;5078;42.544;22.966;2023-09-18T06:04:19;94402.13;;;15.68;100.00
10079;BME280;5078;42.544;22.966;2023-09-18T06:06:46;94412.31;;;15.58;100.00
10079;BME280;5078;42.544;22.966;2023-09-18T06:09:13;94411.28;;;16.09;100.00
10079;BME280;5078;42.544;22.966;2023-09-18T06:11:41;94405.81;;;16.24;100.00
10079;BME280;5078;42.544;22.966;2023-09-18T06:14:09;94391.09;;;16.41;100.00
10079;BME280;5078;42.544;22.966;2023-09-18T06:16:36;94398.44;;;16.74;100.00
10079;BME280;5078;42.544;22.966;2023-09-18T06:19:03;94388.00;;;16.92;100.00
10079;BME280;5078;42.544;22.966;2023-09-18T06:21:30;94398.00;;;16.64;100.00
10079;BME280;5078;42.544;22.966;2023-09-18T06:23:57;94407.16;;;16.41;100.00
10079;BME280;5078;42.544;22.966;2023-09-18T06:26:23;94408.63;;;16.85;100.00
10079;BME280;5078;42.544;22.966;2023-09-18T06:28:51;94397.75;;;17.07;100.00
10079;BME280;5078;42.544;22.966;2023-09-18T06:31:20;94405.63;;;17.15;100.00
10079;BME280;5078;42.544;22.966;2023-09-18T06:33:47;94402.53;;;17.31;100.00
10079;BME280;5078;42.544;22.966;2023-09-18T06:36:14;94402.91;;;17.08;100.00
10079;BME280;5078;42.544;22.966;2023-09-18T06:38:41;94402.88;;;17.01;100.00
10079;BME280;5078;42.544;22.966;2023-09-18T06:41:08;94398.63;;;17.34;100.00
10079;BME280;5078;42.544;22.966;2023-09-18T06:43:34;94398.47;;;17.88;100.00
10079;BME280;5078;42.544;22.966;2023-09-18T06:46:02;94396.56;;;17.49;100.00
10079;BME280;5078;42.544;22.966;2023-09-18T06:48:29;94400.97;;;17.90;100.00
10079;BME280;5078;42.544;22.966;2023-09-18T06:50:57;94400.09;;;18.16;100.00
10079;BME280;5078;42.544;22.966;2023-09-18T06:53:25;94404.66;;;17.96;100.00
10079;BME280;5078;42.544;22.966;2023-09-18T06:55:52;94406.91;;;18.12;100.00
10079;BME280;5078;42.544;22.966;2023-09-18T06:58:18;94408.34;;;18.21;100.00
10079;BME280;5078;42.544;22.966;2023-09-18T07:00:45;94408.00;;;18.83;100.00
10079;BME280;5078;42.544;22.966;2023-09-18T07:03:14;94407.63;;;19.17;100.00
10079;BME280;5078;42.544;22.966;2023-09-18T07:05:41;94404.97;;;19.43;100.00
10079;BME280;5078;42.544;22.966;2023-09-18T07:08:08;94404.41;;;19.66;100.00
10079;BME280;5078;42.544;22.966;2023-09-18T07:10:37;94400.00;;;19.78;100.00
10079;BME280;5078;42.544;22.966;2023-09-18T07:13:04;94395.31;;;19.92;100.00
10079;BME280;5078;42.544;22.966;2023-09-18T07:15:30;94391.31;;;20.01;100.00
10079;BME280;5078;42.544;22.966;2023-09-18T07:17:57;94396.06;;;20.24;100.00
10079;BME280;5078;42.544;22.966;2023-09-18T07:20:25;94401.34;;;20.56;100.00
10079;BME280;5078;42.544;22.966;2023-09-18T07:22:52;94406.13;;;20.90;100.00
10079;BME280;5078;42.544;22.966;2023-09-18T07:25:19;94407.72;;;21.28;100.00
10079;BME280;5078;42.544;22.966;2023-09-18T07:27:45;94406.53;;;21.43;100.00
10079;BME280;5078;42.544;22.966;2023-09-18T07:30:13;94406.22;;;21.32;100.00
10079;BME280;5078;42.544;22.966;2023-09-18T07:32:42;94409.91;;;20.89;100.00
10079;BME280;5078;42.544;22.966;2023-09-18T07:35:09;94419.91;;;21.19;100.00
10079;BME280;5078;42.544;22.966;2023-09-18T07:37:37;94416.41;;;21.30;100.00
10079;BME280;5078;42.544;22.966;2023-09-18T07:40:05;94423.81;;;20.68;100.00
10079;BME280;5078;42.544;22.966;2023-09-18T07:42:32;94423.50;;;19.89;100.00
10079;BME280;5078;42.544;22.966;2023-09-18T07:44:59;94425.03;;;19.78;100.00
10079;BME280;5078;42.544;22.966;2023-09-18T07:47:26;94424.06;;;20.41;100.00
10079;BME280;5078;42.544;22.966;2023-09-18T07:49:52;94421.19;;;20.61;100.00
10079;BME280;5078;42.544;22.966;2023-09-18T07:52:20;94424.25;;;20.83;100.00
10079;BME280;5078;42.544;22.966;2023-09-18T07:54:48;94412.56;;;20.71;100.00
10079;BME280;5078;42.544;22.966;2023-09-18T07:57:15;94428.00;;;21.31;100.00
10079;BME280;5078;42.544;22.966;2023-09-18T07:59:42;94423.81;;;20.86;100.00
10079;BME280;5078;42.544;22.966;2023-09-18T08:02:09;94427.41;;;21.47;100.00
10079;BME280;5078;42.544;22.966;2023-09-18T08:04:36;94432.22;;;20.60;100.00
10079;BME280;5078;42.544;22.966;2023-09-18T08:07:03;94426.53;;;20.43;100.00
10079;BME280;5078;42.544;22.966;2023-09-18T08:09:31;94423.69;;;20.38;100.00
10079;BME280;5078;42.544;22.966;2023-09-18T08:12:03;94419.16;;;21.72;100.00
10079;BME280;5078;42.544;22.966;2023-09-18T08:14:29;94418.91;;;22.28;100.00
10079;BME280;5078;42.544;22.966;2023-09-18T08:16:57;94423.31;;;21.87;100.00
10079;BME280;5078;42.544;22.966;2023-09-18T08:19:25;94414.63;;;22.08;100.00
10079;BME280;5078;42.544;22.966;2023-09-18T08:21:53;94408.81;;;22.23;100.00
10079;BME280;5078;42.544;22.966;2023-09-18T08:24:21;94408.75;;;23.34;94.46
10079;BME280;5078;42.544;22.966;2023-09-18T08:26:48;94407.66;;;23.93;85.10
10079;BME280;5078;42.544;22.966;2023-09-18T08:29:16;94401.25;;;22.72;92.43
10079;BME280;5078;42.544;22.966;2023-09-18T08:31:43;94396.13;;;23.40;89.37
10079;BME280;5078;42.544;22.966;2023-09-18T08:34:10;94391.53;;;23.69;81.40
10079;BME280;5078;42.544;22.966;2023-09-18T08:36:37;94391.66;;;23.17;89.21
10079;BME280;5078;42.544;22.966;2023-09-18T08:39:04;94393.75;;;23.43;85.75
10079;BME280;5078;42.544;22.966;2023-09-18T08:41:33;94386.06;;;23.98;82.18
10079;BME280;5078;42.544;22.966;2023-09-18T08:44:07;94393.31;;;24.09;77.84
10079;BME280;5078;42.544;22.966;2023-09-18T08:46:36;94396.50;;;24.23;75.30
10079;BME280;5078;42.544;22.966;2023-09-18T08:49:04;94388.88;;;24.03;75.60
10079;BME280;5078;42.544;22.966;2023-09-18T08:51:32;94386.56;;;24.11;73.77
10079;BME280;5078;42.544;22.966;2023-09-18T08:53:59;94380.38;;;24.33;74.46
10079;BME280;5078;42.544;22.966;2023-09-18T08:56:28;94383.47;;;24.59;73.04
10079;BME280;5078;42.544;22.966;2023-09-18T08:58:56;94378.06;;;25.20;67.85
10079;BME280;5078;42.544;22.966;2023-09-18T09:01:25;94369.63;;;25.43;66.91
10079;BME280;5078;42.544;22.966;2023-09-18T09:03:53;94365.81;;;24.56;67.74
10079;BME280;5078;42.544;22.966;2023-09-18T09:06:20;94367.22;;;24.59;71.51
10079;BME280;5078;42.544;22.966;2023-09-18T09:08:47;94360.31;;;25.12;66.99
10079;BME280;5078;42.544;22.966;2023-09-18T09:11:14;94366.09;;;25.70;62.65
10079;BME280;5078;42.544;22.966;2023-09-18T09:13:40;94359.22;;;25.89;60.65
10079;BME280;5078;42.544;22.966;2023-09-18T09:16:10;94360.03;;;25.13;64.14
10079;BME280;5078;42.544;22.966;2023-09-18T09:18:47;94354.69;;;26.00;62.75
10079;BME280;5078;42.544;22.966;2023-09-18T09:21:15;94361.81;;;26.06;60.69
10079;BME280;5078;42.544;22.966;2023-09-18T09:23:46;94354.72;;;26.42;58.67
10079;BME280;5078;42.544;22.966;2023-09-18T09:26:16;94351.16;;;26.84;57.39
10079;BME280;5078;42.544;22.966;2023-09-18T09:28:44;94341.75;;;27.18;55.97
10079;BME280;5078;42.544;22.966;2023-09-18T09:31:11;94349.66;;;25.54;59.92
10079;BME280;5078;42.544;22.966;2023-09-18T09:33:49;94344.66;;;26.43;58.83
10079;BME280;5078;42.544;22.966;2023-09-18T09:36:19;94341.66;;;26.39;58.68
10079;BME280;5078;42.544;22.966;2023-09-18T09:38:45;94340.88;;;26.49;57.61
10079;BME280;5078;42.544;22.966;2023-09-18T09:41:13;94335.81;;;26.63;57.67
10079;BME280;5078;42.544;22.966;2023-09-18T09:43:42;94331.34;;;26.41;58.36
10079;BME280;5078;42.544;22.966;2023-09-18T09:46:15;94336.47;;;26.90;57.46
10079;BME280;5078;42.544;22.966;2023-09-18T09:48:57;94323.63;;;27.59;53.28
10079;BME280;5078;42.544;22.966;2023-09-18T09:51:28;94316.03;;;27.61;52.54
10079;BME280;5078;42.544;22.966;2023-09-18T09:53:55;94325.56;;;26.85;54.41
10079;BME280;5078;42.544;22.966;2023-09-18T09:56:42;94315.28;;;26.93;56.25
10079;BME280;5078;42.544;22.966;2023-09-18T09:59:11;94316.44;;;27.17;54.12
10079;BME280;5078;42.544;22.966;2023-09-18T10:01:38;94314.31;;;27.19;53.71
10079;BME280;5078;42.544;22.966;2023-09-18T10:04:09;94316.97;;;27.14;53.70
10079;BME280;5078;42.544;22.966;2023-09-18T10:06:37;94300.66;;;27.14;53.34
10079;BME280;5078;42.544;22.966;2023-09-18T10:09:08;94290.13;;;26.17;53.84
10079;BME280;5078;42.544;22.966;2023-09-18T10:11:40;94299.97;;;25.86;56.96
10079;BME280;5078;42.544;22.966;2023-09-18T10:14:12;94292.03;;;26.17;56.00
10079;BME280;5078;42.544;22.966;2023-09-18T10:16:45;94289.44;;;26.42;57.77
10079;BME280;5078;42.544;22.966;2023-09-18T10:19:20;94285.72;;;27.22;55.26
10079;BME280;5078;42.544;22.966;2023-09-18T10:21:57;94278.94;;;27.81;52.57
10079;BME280;5078;42.544;22.966;2023-09-18T10:24:33;94277.88;;;27.97;51.73
10079;BME280;5078;42.544;22.966;2023-09-18T10:27:03;94272.69;;;28.11;50.55
10079;BME280;5078;42.544;22.966;2023-09-18T10:29:33;94268.88;;;27.61;52.88
10079;BME280;5078;42.544;22.966;2023-09-18T10:32:02;94273.06;;;26.90;53.27
10079;BME280;5078;42.544;22.966;2023-09-18T10:34:30;94270.94;;;26.97;54.37
10079;BME280;5078;42.544;22.966;2023-09-18T10:37:01;94257.97;;;27.35;53.54
10079;BME280;5078;42.544;22.966;2023-09-18T10:39:33;94254.44;;;27.50;53.06
10079;BME280;5078;42.544;22.966;2023-09-18T10:42:02;94256.59;;;27.27;53.24
10079;BME280;5078;42.544;22.966;2023-09-18T10:44:30;94255.47;;;27.18;54.10
10079;BME280;5078;42.544;22.966;2023-09-18T10:46:57;94250.59;;;27.20;52.99
10079;BME280;5078;42.544;22.966;2023-09-18T10:49:25;94253.63;;;27.34;52.33
10079;BME280;5078;42.544;22.966;2023-09-18T10:51:54;94230.31;;;26.80;53.64
10079;BME280;5078;42.544;22.966;2023-09-18T10:54:24;94244.94;;;26.54;55.90
10079;BME280;5078;42.544;22.966;2023-09-18T10:56:51;94243.88;;;26.60;55.07
10079;BME280;5078;42.544;22.966;2023-09-18T10:59:18;94227.47;;;26.50;56.95
10079;BME280;5078;42.544;22.966;2023-09-18T11:01:45;94232.81;;;26.92;54.52
10079;BME280;5078;42.544;22.966;2023-09-18T11:04:13;94223.38;;;27.36;53.31
10079;BME280;5078;42.544;22.966;2023-09-18T11:07:08;94226.94;;;27.57;50.57
10079;BME280;5078;42.544;22.966;2023-09-18T11:09:44;94223.09;;;27.42;49.91
10079;BME280;5078;42.544;22.966;2023-09-18T11:12:14;94210.31;;;27.38;49.81
10079;BME280;5078;42.544;22.966;2023-09-18T11:14:43;94224.97;;;27.06;50.97
10079;BME280;5078;42.544;22.966;2023-09-18T11:17:31;94218.88;;;26.78;51.76
10079;BME280;5078;42.544;22.966;2023-09-18T11:20:05;94215.47;;;26.40;52.72
10079;BME280;5078;42.544;22.966;2023-09-18T11:22:34;94215.41;;;26.25;53.46
10079;BME280;5078;42.544;22.966;2023-09-18T11:25:31;94216.44;;;26.14;54.82
10079;BME280;5078;42.544;22.966;2023-09-18T11:28:01;94212.69;;;26.25;52.10
10079;BME280;5078;42.544;22.966;2023-09-18T11:30:29;94217.63;;;26.38;53.19
10079;BME280;5078;42.544;22.966;2023-09-18T11:32:56;94212.91;;;26.76;52.45
10079;BME280;5078;42.544;22.966;2023-09-18T11:35:23;94196.91;;;26.17;51.37
10079;BME280;5078;42.544;22.966;2023-09-18T11:38:03;94174.59;;;26.20;52.17
10079;BME280;5078;42.544;22.966;2023-09-18T11:40:34;94206.69;;;26.23;53.69
10079;BME280;5078;42.544;22.966;2023-09-18T11:43:19;94202.75;;;25.98;53.25
10079;BME280;5078;42.544;22.966;2023-09-18T11:45:51;94201.66;;;25.94;54.28
10079;BME280;5078;42.544;22.966;2023-09-18T11:48:18;94204.63;;;25.93;53.82
10079;BME280;5078;42.544;22.966;2023-09-18T11:50:47;94205.84;;;26.17;54.28
10079;BME280;5078;42.544;22.966;2023-09-18T11:53:16;94201.63;;;26.42;53.01
10079;BME280;5078;42.544;22.966;2023-09-18T11:55:46;94198.56;;;26.33;52.06
10079;BME280;5078;42.544;22.966;2023-09-18T11:58:13;94201.94;;;25.23;54.10
10079;BME280;5078;42.544;22.966;2023-09-18T12:00:40;94195.59;;;25.82;53.97
10079;BME280;5078;42.544;22.966;2023-09-18T12:03:16;94189.53;;;26.12;53.32
10079;BME280;5078;42.544;22.966;2023-09-18T12:05:55;94188.13;;;26.04;52.95
10079;BME280;5078;42.544;22.966;2023-09-18T12:08:23;94166.88;;;25.91;52.94
10079;BME280;5078;42.544;22.966;2023-09-18T12:10:53;94184.59;;;26.04;51.25
10079;BME280;5078;42.544;22.966;2023-09-18T12:13:20;94181.72;;;26.26;49.77
10079;BME280;5078;42.544;22.966;2023-09-18T12:15:47;94181.16;;;26.19;48.89
10079;BME280;5078;42.544;22.966;2023-09-18T12:18:15;94177.78;;;25.96;50.14
10079;BME280;5078;42.544;22.966;2023-09-18T12:20:46;94177.34;;;25.35;52.10
10079;BME280;5078;42.544;22.966;2023-09-18T12:23:13;94181.84;;;25.56;53.33
10079;BME280;5078;42.544;22.966;2023-09-18T12:25:40;94176.22;;;25.73;52.91
10079;BME280;5078;42.544;22.966;2023-09-18T12:28:08;94172.63;;;26.00;53.25
10079;BME280;5078;42.544;22.966;2023-09-18T12:30:36;94172.28;;;26.44;50.59
10079;BME280;5078;42.544;22.966;2023-09-18T12:33:03;94168.25;;;26.62;50.51
10079;BME280;5078;42.544;22.966;2023-09-18T12:35:31;94172.13;;;26.92;48.69
10079;BME280;5078;42.544;22.966;2023-09-18T12:37:58;94167.25;;;27.09;47.61
10079;BME280;5078;42.544;22.966;2023-09-18T12:40:27;94161.28;;;27.32;46.11
10079;BME280;5078;42.544;22.966;2023-09-18T12:42:56;94157.19;;;27.50;46.04
10079;BME280;5078;42.544;22.966;2023-09-18T12:45:26;94152.00;;;27.13;45.81
10079;BME280;5078;42.544;22.966;2023-09-18T12:47:55;94160.28;;;26.45;46.34
10079;BME280;5078;42.544;22.966;2023-09-18T12:50:23;94150.84;;;26.63;47.68
10079;BME280;5078;42.544;22.966;2023-09-18T12:52:50;94146.53;;;26.82;47.13
10079;BME280;5078;42.544;22.966;2023-09-18T12:55:21;94142.19;;;27.17;46.09
10079;BME280;5078;42.544;22.966;2023-09-18T12:57:49;94135.69;;;27.54;45.28
10079;BME280;5078;42.544;22.966;2023-09-18T13:00:17;94141.09;;;27.13;44.86